createdAt,value
2023-05-29T00:00:34.068Z,3.78
2023-05-29T00:01:37.023Z,3.70
2023-05-29T00:02:38.690Z,3.85
2023-05-29T00:03:40.395Z,3.78
2023-05-29T00:04:42.119Z,3.78
2023-05-29T00:05:44.197Z,3.55
2023-05-29T00:06:45.838Z,3.38
2023-05-29T00:07:47.398Z,3.40
2023-05-29T00:08:48.964Z,3.65
2023-05-29T00:09:50.673Z,3.40
2023-05-29T00:10:52.240Z,3.13
2023-05-29T00:11:54.142Z,4.05
2023-05-29T00:12:57.207Z,3.75
2023-05-29T00:13:58.958Z,4.07
2023-05-29T00:15:01.237Z,3.70
2023-05-29T00:16:04.584Z,3.33
2023-05-29T00:17:07.182Z,3.70
2023-05-29T00:18:08.955Z,3.90
2023-05-29T00:19:10.554Z,3.45
2023-05-29T00:20:13.118Z,3.33
2023-05-29T00:22:16.741Z,3.72
2023-05-29T00:23:18.298Z,3.15
2023-05-29T00:24:21.227Z,3.58
2023-05-29T00:26:24.215Z,3.45
2023-05-29T00:27:25.800Z,3.50
2023-05-29T00:28:27.553Z,3.20
2023-05-29T00:29:30.122Z,3.88
2023-05-29T00:30:31.746Z,3.65
2023-05-29T00:31:33.377Z,3.38
2023-05-29T00:32:35.002Z,3.75
2023-05-29T00:33:36.575Z,3.00
2023-05-29T00:34:38.463Z,3.72
2023-05-29T00:35:40.006Z,3.63
2023-05-29T00:36:41.583Z,4.03
2023-05-29T00:37:43.116Z,3.60
2023-05-29T00:38:44.666Z,3.22
2023-05-29T00:39:46.320Z,3.80
2023-05-29T00:40:47.923Z,3.10
2023-05-29T00:41:52.115Z,3.42
2023-05-29T00:42:53.738Z,3.30
2023-05-29T00:43:55.362Z,3.60
2023-05-29T00:44:57.223Z,3.30
2023-05-29T00:45:58.868Z,3.40
2023-05-29T00:47:00.448Z,3.35
2023-05-29T00:48:02.168Z,3.53
2023-05-29T00:49:03.781Z,3.85
2023-05-29T00:50:06.199Z,3.22
2023-05-29T00:51:07.883Z,3.10
2023-05-29T00:52:09.619Z,3.47
2023-05-29T00:53:14.084Z,3.53
2023-05-29T00:54:17.915Z,3.45
2023-05-29T00:55:19.714Z,3.40
2023-05-29T00:56:21.909Z,3.50
2023-05-29T00:57:23.789Z,3.47
2023-05-29T00:58:25.501Z,3.30
2023-05-29T00:59:31.550Z,3.88
2023-05-29T01:00:34.326Z,3.47
2023-05-29T01:01:36.853Z,3.53
2023-05-29T01:02:38.724Z,3.53
2023-05-29T01:03:41.289Z,3.67
2023-05-29T01:04:51.695Z,3.47
2023-05-29T01:05:53.309Z,3.10
2023-05-29T01:06:54.924Z,3.28
2023-05-29T01:07:56.462Z,3.60
2023-05-29T01:08:58.008Z,3.85
2023-05-29T01:09:59.921Z,3.33
2023-05-29T01:11:19.142Z,3.75
2023-05-29T01:12:25.162Z,3.63
2023-05-29T01:13:29.151Z,3.33
2023-05-29T01:14:33.491Z,3.80
2023-05-29T01:15:50.229Z,3.35
2023-05-29T01:17:04.449Z,3.97
2023-05-29T01:18:21.597Z,3.90
2023-05-29T01:19:55.303Z,4.00
2023-05-29T01:21:04.621Z,3.95
2023-05-29T01:22:17.469Z,3.22
2023-05-29T01:23:51.836Z,3.70
2023-05-29T01:25:00.072Z,3.45
2023-05-29T01:26:02.197Z,4.13
2023-05-29T01:27:07.371Z,3.67
2023-05-29T01:28:08.989Z,4.18
2023-05-29T01:29:11.974Z,4.32
2023-05-29T01:30:13.877Z,3.33
2023-05-29T01:31:17.473Z,4.28
2023-05-29T01:32:19.072Z,4.20
2023-05-29T01:33:20.755Z,3.85
2023-05-29T01:34:22.383Z,3.50
2023-05-29T01:35:23.975Z,4.15
2023-05-29T01:36:25.666Z,4.05
2023-05-29T01:37:28.450Z,4.75
2023-05-29T01:38:30.068Z,3.63
2023-05-29T01:39:33.074Z,3.97
2023-05-29T01:40:35.043Z,4.25
2023-05-29T01:41:36.675Z,4.22
2023-05-29T01:42:38.207Z,3.88
2023-05-29T01:43:39.745Z,3.88
2023-05-29T01:44:41.334Z,3.78
2023-05-29T01:45:42.941Z,4.10
2023-05-29T01:46:44.809Z,3.95
2023-05-29T01:47:46.939Z,4.30
2023-05-29T01:48:48.580Z,3.80
2023-05-29T01:49:50.112Z,3.35
2023-05-29T01:50:51.765Z,3.88
2023-05-29T01:51:53.429Z,3.60
2023-05-29T01:52:55.053Z,3.58
2023-05-29T01:53:56.606Z,3.90
2023-05-29T01:54:58.136Z,3.17
2023-05-29T01:55:59.701Z,4.03
2023-05-29T01:57:03.300Z,4.55
2023-05-29T01:58:04.863Z,4.22
2023-05-29T01:59:06.992Z,3.95
2023-05-29T02:00:10.269Z,3.65
2023-05-29T02:01:12.580Z,3.60
2023-05-29T02:02:14.320Z,3.67
2023-05-29T02:03:15.965Z,3.63
2023-05-29T02:04:17.645Z,4.15
2023-05-29T02:05:19.379Z,3.40
2023-05-29T02:06:21.577Z,3.88
2023-05-29T02:07:23.282Z,3.50
2023-05-29T02:08:24.880Z,3.47
2023-05-29T02:09:26.907Z,4.00
2023-05-29T02:10:28.519Z,3.83
2023-05-29T02:11:30.473Z,3.67
2023-05-29T02:12:32.232Z,3.90
2023-05-29T02:13:33.796Z,3.33
2023-05-29T02:14:35.390Z,3.92
2023-05-29T02:15:36.974Z,3.50
2023-05-29T02:16:42.075Z,3.88
2023-05-29T02:17:43.785Z,3.97
2023-05-29T02:18:45.491Z,4.03
2023-05-29T02:19:47.361Z,4.00
2023-05-29T02:20:49.192Z,4.20
2023-05-29T02:21:50.913Z,3.20
2023-05-29T02:22:52.495Z,3.75
2023-05-29T02:23:54.164Z,3.58
2023-05-29T02:24:55.961Z,3.60
2023-05-29T02:25:57.677Z,3.70
2023-05-29T02:26:59.305Z,3.70
2023-05-29T02:28:00.896Z,4.43
2023-05-29T02:29:02.466Z,3.45
2023-05-29T02:30:04.360Z,4.00
2023-05-29T02:31:06.392Z,4.20
2023-05-29T02:32:08.183Z,3.17
2023-05-29T02:33:10.007Z,3.70
2023-05-29T02:34:11.641Z,3.42
2023-05-29T02:35:16.104Z,3.80
2023-05-29T02:36:18.413Z,3.58
2023-05-29T02:37:20.048Z,3.85
2023-05-29T02:38:22.125Z,4.13
2023-05-29T02:39:23.745Z,3.47
2023-05-29T02:40:25.532Z,2.88
2023-05-29T02:41:27.713Z,3.90
2023-05-29T02:42:29.282Z,3.50
2023-05-29T02:43:30.904Z,3.70
2023-05-29T02:44:32.471Z,3.80
2023-05-29T02:45:34.031Z,3.60
2023-05-29T02:46:35.966Z,3.60
2023-05-29T02:47:37.744Z,3.45
2023-05-29T02:48:39.309Z,3.38
2023-05-29T02:49:40.895Z,3.45
2023-05-29T02:50:42.482Z,3.13
2023-05-29T02:51:44.128Z,3.55
2023-05-29T02:52:45.689Z,3.72
2023-05-29T02:53:47.272Z,3.00
2023-05-29T02:54:48.874Z,3.30
2023-05-29T02:55:52.354Z,3.58
2023-05-29T02:56:54.337Z,3.30
2023-05-29T02:57:57.024Z,3.15
2023-05-29T02:58:58.631Z,2.90
2023-05-29T03:00:00.420Z,3.10
2023-05-29T03:01:03.717Z,3.30
2023-05-29T03:02:05.754Z,3.42
2023-05-29T03:03:07.551Z,3.58
2023-05-29T03:04:10.898Z,3.42
2023-05-29T03:05:12.687Z,3.40
2023-05-29T03:06:14.273Z,3.20
2023-05-29T03:07:16.181Z,3.33
2023-05-29T03:08:18.966Z,3.20
2023-05-29T03:09:23.344Z,3.45
2023-05-29T03:10:27.777Z,3.08
2023-05-29T03:11:30.012Z,3.80
2023-05-29T03:12:31.896Z,3.63
2023-05-29T03:13:35.631Z,3.30
2023-05-29T03:14:38.024Z,3.15
2023-05-29T03:15:39.592Z,3.60
2023-05-29T03:16:41.745Z,3.30
2023-05-29T03:17:43.638Z,3.25
2023-05-29T03:18:45.235Z,3.15
2023-05-29T03:19:46.841Z,3.38
2023-05-29T03:20:49.237Z,3.50
2023-05-29T03:21:51.381Z,3.35
2023-05-29T03:22:53.147Z,3.40
2023-05-29T03:23:54.875Z,3.25
2023-05-29T03:24:56.450Z,3.60
2023-05-29T03:25:58.069Z,3.40
2023-05-29T03:26:59.639Z,2.92
2023-05-29T03:28:01.306Z,3.47
2023-05-29T03:29:02.924Z,3.30
2023-05-29T03:30:04.776Z,3.33
2023-05-29T03:31:06.402Z,3.60
2023-05-29T03:32:07.984Z,3.53
2023-05-29T03:33:09.616Z,3.00
2023-05-29T03:34:11.259Z,3.40
2023-05-29T03:35:12.849Z,3.70
2023-05-29T03:36:14.434Z,3.88
2023-05-29T03:37:16.134Z,3.03
2023-05-29T03:38:17.726Z,3.63
2023-05-29T03:39:19.364Z,4.00
2023-05-29T03:40:21.161Z,2.83
2023-05-29T03:41:22.775Z,3.42
2023-05-29T03:42:24.364Z,3.50
2023-05-29T03:43:25.947Z,3.70
2023-05-29T03:44:27.516Z,3.42
2023-05-29T03:45:29.104Z,3.65
2023-05-29T03:46:30.991Z,3.80
2023-05-29T03:47:32.955Z,3.38
2023-05-29T03:48:34.611Z,3.85
2023-05-29T03:49:36.182Z,3.80
2023-05-29T03:50:37.772Z,3.70
2023-05-29T03:51:39.346Z,2.88
2023-05-29T03:52:40.941Z,3.38
2023-05-29T03:53:42.540Z,3.70
2023-05-29T03:54:45.898Z,3.67
2023-05-29T03:55:47.438Z,3.38
2023-05-29T03:56:49.030Z,3.70
2023-05-29T03:57:50.780Z,3.55
2023-05-29T03:58:52.348Z,3.63
2023-05-29T03:59:53.920Z,3.35
2023-05-29T04:00:55.570Z,3.80
2023-05-29T04:01:57.213Z,3.60
2023-05-29T04:02:58.944Z,3.60
2023-05-29T04:04:00.959Z,3.40
2023-05-29T04:05:02.684Z,3.90
2023-05-29T04:06:04.440Z,4.03
2023-05-29T04:07:06.243Z,3.63
2023-05-29T04:09:16.110Z,3.30
2023-05-29T04:10:17.751Z,3.90
2023-05-29T04:11:21.905Z,3.30
2023-05-29T04:12:23.939Z,3.65
2023-05-29T04:13:25.522Z,3.67
2023-05-29T04:14:27.092Z,3.70
2023-05-29T04:15:29.137Z,3.92
2023-05-29T04:16:30.942Z,3.40
2023-05-29T04:17:32.710Z,3.03
2023-05-29T04:18:34.363Z,3.85
2023-05-29T04:19:36.037Z,3.40
2023-05-29T04:20:37.710Z,3.20
2023-05-29T04:21:39.339Z,3.92
2023-05-29T04:22:41.223Z,3.10
2023-05-29T04:23:42.789Z,3.88
2023-05-29T04:24:44.477Z,3.50
2023-05-29T04:25:46.103Z,3.55
2023-05-29T04:26:47.810Z,3.50
2023-05-29T04:27:52.105Z,3.95
2023-05-29T04:28:58.104Z,3.70
2023-05-29T04:29:59.877Z,3.53
2023-05-29T04:31:01.703Z,3.72
2023-05-29T04:32:04.397Z,3.90
2023-05-29T04:33:06.313Z,3.65
2023-05-29T04:34:08.581Z,3.75
2023-05-29T04:35:10.449Z,3.50
2023-05-29T04:36:12.076Z,3.70
2023-05-29T04:37:14.691Z,4.25
2023-05-29T04:38:17.075Z,4.18
2023-05-29T04:39:18.655Z,4.15
2023-05-29T04:40:21.505Z,3.00
2023-05-29T04:42:26.481Z,3.92
2023-05-29T04:43:28.391Z,3.63
2023-05-29T04:44:34.072Z,3.63
2023-05-29T04:45:38.040Z,3.40
2023-05-29T04:46:39.693Z,3.40
2023-05-29T04:47:47.237Z,3.63
2023-05-29T04:48:48.928Z,3.25
2023-05-29T04:49:51.358Z,3.63
2023-05-29T04:50:53.119Z,3.65
2023-05-29T04:51:54.832Z,3.92
2023-05-29T04:52:56.459Z,3.88
2023-05-29T04:53:58.150Z,3.70
2023-05-29T04:54:59.721Z,3.47
2023-05-29T04:56:01.302Z,3.88
2023-05-29T04:57:02.972Z,4.10
2023-05-29T04:58:04.572Z,3.70
2023-05-29T04:59:06.139Z,3.88
2023-05-29T05:00:09.500Z,3.63
2023-05-29T05:01:15.244Z,3.80
2023-05-29T05:02:16.806Z,4.00
2023-05-29T05:03:18.483Z,4.25
2023-05-29T05:04:20.251Z,4.03
2023-05-29T05:05:22.159Z,3.65
2023-05-29T05:06:23.719Z,3.78
2023-05-29T05:07:25.512Z,3.50
2023-05-29T05:08:27.401Z,3.42
2023-05-29T05:09:28.961Z,4.50
2023-05-29T05:10:30.695Z,4.20
2023-05-29T05:11:32.339Z,3.97
2023-05-29T05:12:34.493Z,3.33
2023-05-29T05:13:36.604Z,4.07
2023-05-29T05:14:38.625Z,3.92
2023-05-29T05:15:40.298Z,4.00
2023-05-29T05:16:41.901Z,3.67
2023-05-29T05:17:43.665Z,3.75
2023-05-29T05:18:48.282Z,3.47
2023-05-29T05:19:50.554Z,3.60
2023-05-29T05:20:52.380Z,3.92
2023-05-29T05:21:54.129Z,4.10
2023-05-29T05:22:57.017Z,3.80
2023-05-29T05:25:01.648Z,3.45
2023-05-29T05:26:03.795Z,3.55
2023-05-29T05:27:08.509Z,4.00
2023-05-29T05:28:10.845Z,3.45
2023-05-29T05:29:12.517Z,4.10
2023-05-29T05:30:14.394Z,3.63
2023-05-29T05:31:16.302Z,4.00
2023-05-29T05:32:17.918Z,3.30
2023-05-29T05:33:19.547Z,2.85
2023-05-29T05:34:21.499Z,3.40
2023-05-29T05:35:23.134Z,3.42
2023-05-29T05:36:24.745Z,4.03
2023-05-29T05:37:26.906Z,3.33
2023-05-29T05:38:28.832Z,3.10
2023-05-29T05:39:30.715Z,3.25
2023-05-29T05:40:32.358Z,3.40
2023-05-29T05:41:33.947Z,3.28
2023-05-29T05:42:35.550Z,3.85
2023-05-29T05:43:37.307Z,3.45
2023-05-29T05:44:38.881Z,3.67
2023-05-29T05:45:43.272Z,3.50
2023-05-29T05:46:45.001Z,3.88
2023-05-29T05:47:47.547Z,3.55
2023-05-29T05:48:49.289Z,3.47
2023-05-29T05:49:52.569Z,3.15
2023-05-29T05:50:54.299Z,3.28
2023-05-29T05:51:56.049Z,3.50
2023-05-29T05:52:58.026Z,3.80
2023-05-29T05:53:59.799Z,3.55
2023-05-29T05:55:01.380Z,3.50
2023-05-29T05:56:03.036Z,3.20
2023-05-29T05:57:04.814Z,3.50
2023-05-29T05:58:06.680Z,3.20
2023-05-29T05:59:08.333Z,3.92
2023-05-29T06:00:13.992Z,3.08
2023-05-29T06:01:16.150Z,3.30
2023-05-29T06:02:17.797Z,3.13
2023-05-29T06:03:19.721Z,3.60
2023-05-29T06:04:21.822Z,2.90
2023-05-29T06:05:23.384Z,3.35
2023-05-29T06:06:25.238Z,3.30
2023-05-29T06:07:27.057Z,3.40
2023-05-29T06:08:28.981Z,3.40
2023-05-29T06:09:30.510Z,3.20
2023-05-29T06:10:32.075Z,3.33
2023-05-29T06:11:33.668Z,3.53
2023-05-29T06:12:35.979Z,2.90
2023-05-29T06:13:37.953Z,3.63
2023-05-29T06:14:42.443Z,3.33
2023-05-29T06:15:44.748Z,3.53
2023-05-29T06:16:51.748Z,3.60
2023-05-29T06:17:54.123Z,3.97
2023-05-29T06:18:56.517Z,3.00
2023-05-29T06:19:58.072Z,3.40
2023-05-29T06:20:59.970Z,3.28
2023-05-29T06:22:02.064Z,3.08
2023-05-29T06:23:03.668Z,3.28
2023-05-29T06:24:05.376Z,2.97
2023-05-29T06:25:09.522Z,3.33
2023-05-29T06:26:13.491Z,3.35
2023-05-29T06:27:15.100Z,3.50
2023-05-29T06:28:16.831Z,2.75
2023-05-29T06:29:18.531Z,3.38
2023-05-29T06:30:20.120Z,2.78
2023-05-29T06:31:21.780Z,3.28
2023-05-29T06:32:23.385Z,3.28
2023-05-29T06:33:25.371Z,2.88
2023-05-29T06:34:27.236Z,3.13
2023-05-29T06:35:28.790Z,2.78
2023-05-29T06:36:30.334Z,3.00
2023-05-29T06:37:31.940Z,3.28
2023-05-29T06:38:33.497Z,3.35
2023-05-29T06:39:35.064Z,3.00
2023-05-29T06:40:36.630Z,3.00
2023-05-29T06:41:38.219Z,3.08
2023-05-29T06:42:39.843Z,3.25
2023-05-29T06:43:42.874Z,3.15
2023-05-29T06:44:45.996Z,3.20
2023-05-29T06:45:47.558Z,3.20
2023-05-29T06:46:49.155Z,3.80
2023-05-29T06:47:50.916Z,3.63
2023-05-29T06:48:52.503Z,12.50
2023-05-29T06:49:54.119Z,12.20
2023-05-29T06:50:55.941Z,8.60
2023-05-29T06:51:57.654Z,4.68
2023-05-29T06:52:59.263Z,3.97
2023-05-29T06:54:01.101Z,3.58
2023-05-29T06:55:03.177Z,3.05
2023-05-29T06:56:05.590Z,3.00
2023-05-29T06:57:11.120Z,3.05
2023-05-29T06:58:13.364Z,3.22
2023-05-29T06:59:15.325Z,2.80
2023-05-29T07:00:18.583Z,2.80
2023-05-29T07:01:20.430Z,3.10
2023-05-29T07:02:22.082Z,3.05
2023-05-29T07:03:23.865Z,3.28
2023-05-29T07:04:25.753Z,2.80
2023-05-29T07:05:28.052Z,2.83
2023-05-29T07:06:29.753Z,2.97
2023-05-29T07:07:31.395Z,2.60
2023-05-29T07:08:32.972Z,2.90
2023-05-29T07:09:34.702Z,3.45
2023-05-29T07:10:40.318Z,3.15
2023-05-29T07:11:41.893Z,3.00
2023-05-29T07:12:46.404Z,3.03
2023-05-29T07:13:47.968Z,3.92
2023-05-29T07:14:51.709Z,3.38
2023-05-29T07:15:53.301Z,3.40
2023-05-29T07:16:54.997Z,4.15
2023-05-29T07:17:56.708Z,7.25
2023-05-29T07:18:58.316Z,2.90
2023-05-29T07:20:00.069Z,3.17
2023-05-29T07:21:02.092Z,3.28
2023-05-29T07:22:03.974Z,3.05
2023-05-29T07:23:05.577Z,3.30
2023-05-29T07:24:07.271Z,3.10
2023-05-29T07:25:09.213Z,2.83
2023-05-29T07:26:11.093Z,3.00
2023-05-29T07:27:12.667Z,2.63
2023-05-29T07:28:22.148Z,2.97
2023-05-29T07:29:24.834Z,3.20
2023-05-29T07:30:26.501Z,2.97
2023-05-29T07:31:28.151Z,2.92
2023-05-29T07:32:29.835Z,3.20
2023-05-29T07:33:31.546Z,2.90
2023-05-29T07:34:33.497Z,3.10
2023-05-29T07:35:35.079Z,3.25
2023-05-29T07:36:37.133Z,3.40
2023-05-29T07:37:38.769Z,3.70
2023-05-29T07:38:40.464Z,3.08
2023-05-29T07:39:42.599Z,3.42
2023-05-29T07:40:44.212Z,3.00
2023-05-29T07:41:45.836Z,3.17
2023-05-29T07:42:47.506Z,3.00
2023-05-29T07:43:53.041Z,3.30
2023-05-29T07:44:54.965Z,3.10
2023-05-29T07:45:56.573Z,3.00
2023-05-29T07:46:58.258Z,2.75
2023-05-29T07:47:59.867Z,2.80
2023-05-29T07:49:01.655Z,3.38
2023-05-29T07:50:03.318Z,2.88
2023-05-29T07:51:05.788Z,2.45
2023-05-29T07:52:07.444Z,2.58
2023-05-29T07:53:08.971Z,2.50
2023-05-29T07:54:10.769Z,3.10
2023-05-29T07:55:12.395Z,3.45
2023-05-29T07:56:14.645Z,3.58
2023-05-29T07:57:16.248Z,3.03
2023-05-29T07:58:18.403Z,3.20
2023-05-29T07:59:19.968Z,2.70
2023-05-29T08:00:21.707Z,3.05
2023-05-29T08:01:23.315Z,2.83
2023-05-29T08:02:25.001Z,3.05
2023-05-29T08:03:27.156Z,2.90
2023-05-29T08:04:28.929Z,3.22
2023-05-29T08:05:30.730Z,3.13
2023-05-29T08:06:35.488Z,2.80
2023-05-29T08:07:37.814Z,2.50
2023-05-29T08:08:39.395Z,3.28
2023-05-29T08:09:41.145Z,2.42
2023-05-29T08:10:42.752Z,2.80
2023-05-29T08:11:46.394Z,2.67
2023-05-29T08:12:48.094Z,2.70
2023-05-29T08:13:49.678Z,2.90
2023-05-29T08:14:51.939Z,2.80
2023-05-29T08:15:53.740Z,2.72
2023-05-29T08:16:55.635Z,3.05
2023-05-29T08:17:57.316Z,2.83
2023-05-29T08:18:58.949Z,2.72
2023-05-29T08:20:01.263Z,3.20
2023-05-29T08:21:03.667Z,2.75
2023-05-29T08:22:05.500Z,2.55
2023-05-29T08:23:07.127Z,2.65
2023-05-29T08:24:09.717Z,2.70
2023-05-29T08:25:11.343Z,3.15
2023-05-29T08:26:14.268Z,3.08
2023-05-29T08:27:18.359Z,2.90
2023-05-29T08:28:19.969Z,3.28
2023-05-29T08:29:21.631Z,3.38
2023-05-29T08:30:23.254Z,2.90
2023-05-29T08:31:26.669Z,3.30
2023-05-29T08:32:28.496Z,3.03
2023-05-29T08:33:31.649Z,2.60
2023-05-29T08:34:33.373Z,2.40
2023-05-29T08:35:35.167Z,2.63
2023-05-29T08:36:36.773Z,2.78
2023-05-29T08:37:38.371Z,2.67
2023-05-29T08:38:40.010Z,2.70
2023-05-29T08:39:42.157Z,2.40
2023-05-29T08:40:43.800Z,2.60
2023-05-29T08:41:52.331Z,2.70
2023-05-29T08:43:16.755Z,2.90
2023-05-29T08:44:18.942Z,2.65
2023-05-29T08:45:20.725Z,2.92
2023-05-29T08:46:22.382Z,2.85
2023-05-29T08:47:24.239Z,2.95
2023-05-29T08:48:26.460Z,2.75
2023-05-29T08:49:30.808Z,2.63
2023-05-29T08:50:32.401Z,3.13
2023-05-29T08:51:35.590Z,2.65
2023-05-29T08:52:37.355Z,2.47
2023-05-29T08:53:40.009Z,3.00
2023-05-29T08:54:47.320Z,2.42
2023-05-29T08:55:49.494Z,2.92
2023-05-29T08:56:51.100Z,2.47
2023-05-29T08:57:52.694Z,2.63
2023-05-29T08:58:54.385Z,2.90
2023-05-29T08:59:56.018Z,2.53
2023-05-29T09:00:57.868Z,2.83
2023-05-29T09:01:59.743Z,2.30
2023-05-29T09:03:04.431Z,2.63
2023-05-29T09:04:06.305Z,2.88
2023-05-29T09:05:08.295Z,2.83
2023-05-29T09:06:10.166Z,2.78
2023-05-29T09:07:13.849Z,2.90
2023-05-29T09:08:16.263Z,2.80
2023-05-29T09:09:21.654Z,3.20
2023-05-29T09:10:29.113Z,2.70
2023-05-29T09:11:30.702Z,2.92
2023-05-29T09:12:32.570Z,2.80
2023-05-29T09:13:34.117Z,2.50
2023-05-29T09:14:40.654Z,2.45
2023-05-29T09:15:44.727Z,3.03
2023-05-29T09:16:46.846Z,2.60
2023-05-29T09:17:56.075Z,2.83
2023-05-29T09:19:06.612Z,2.83
2023-05-29T09:20:16.715Z,2.97
2023-05-29T09:21:28.487Z,2.60
2023-05-29T09:22:30.166Z,2.95
2023-05-29T09:23:31.809Z,3.15
2023-05-29T09:24:34.059Z,3.10
2023-05-29T09:25:37.046Z,2.88
2023-05-29T09:26:38.639Z,2.83
2023-05-29T09:27:40.455Z,2.92
2023-05-29T09:28:42.330Z,3.63
2023-05-29T09:29:45.011Z,3.85
2023-05-29T09:30:48.133Z,2.97
2023-05-29T09:31:49.850Z,3.65
2023-05-29T09:32:54.588Z,3.92
2023-05-29T09:33:56.423Z,4.70
2023-05-29T09:34:58.739Z,3.42
2023-05-29T09:36:00.766Z,4.05
2023-05-29T09:37:09.755Z,3.47
2023-05-29T09:38:20.485Z,3.03
2023-05-29T09:39:30.611Z,2.80
2023-05-29T09:40:36.671Z,3.88
2023-05-29T09:41:47.525Z,3.45
2023-05-29T09:42:52.054Z,4.30
2023-05-29T09:43:55.916Z,4.25
2023-05-29T09:45:00.820Z,3.30
2023-05-29T09:46:03.348Z,3.45
2023-05-29T09:47:05.778Z,3.58
2023-05-29T09:48:08.441Z,3.20
2023-05-29T09:49:19.205Z,4.20
2023-05-29T09:50:23.952Z,4.05
2023-05-29T09:51:27.102Z,3.53
2023-05-29T09:52:31.294Z,3.03
2023-05-29T09:53:33.078Z,3.70
2023-05-29T09:54:39.282Z,3.88
2023-05-29T09:55:41.159Z,3.33
2023-05-29T09:56:43.822Z,3.78
2023-05-29T09:57:47.541Z,3.40
2023-05-29T09:58:49.755Z,3.92
2023-05-29T09:59:54.289Z,6.70
2023-05-29T10:00:59.621Z,5.13
2023-05-29T10:02:04.978Z,4.03
2023-05-29T10:03:07.000Z,3.95
2023-05-29T10:04:11.586Z,3.55
2023-05-29T10:05:16.651Z,3.40
2023-05-29T10:06:19.454Z,4.05
2023-05-29T10:08:25.278Z,4.50
2023-05-29T10:09:26.928Z,3.67
2023-05-29T10:10:28.491Z,3.55
2023-05-29T10:11:30.306Z,3.85
2023-05-29T10:12:37.950Z,3.03
2023-05-29T10:13:40.071Z,3.30
2023-05-29T10:14:44.192Z,3.20
2023-05-29T10:15:46.648Z,3.25
2023-05-29T10:16:48.507Z,3.45
2023-05-29T10:18:05.514Z,4.85
2023-05-29T10:19:08.604Z,3.13
2023-05-29T10:20:10.574Z,3.05
2023-05-29T10:21:13.048Z,3.30
2023-05-29T10:22:14.667Z,2.97
2023-05-29T10:23:16.227Z,2.97
2023-05-29T10:24:18.136Z,3.00
2023-05-29T10:25:20.887Z,3.00
2023-05-29T10:26:23.589Z,2.60
2023-05-29T10:27:25.184Z,2.60
2023-05-29T10:28:26.739Z,3.15
2023-05-29T10:29:29.740Z,2.90
2023-05-29T10:30:46.918Z,3.10
2023-05-29T10:32:00.077Z,3.10
2023-05-29T10:33:07.714Z,2.83
2023-05-29T10:34:33.251Z,3.00
2023-05-29T10:35:41.084Z,2.80
2023-05-29T10:36:48.254Z,2.88
2023-05-29T10:38:04.082Z,2.63
2023-05-29T10:39:05.981Z,2.95
2023-05-29T10:40:14.273Z,2.83
2023-05-29T10:41:27.677Z,3.20
2023-05-29T10:42:50.539Z,2.70
2023-05-29T10:44:00.570Z,2.63
2023-05-29T10:45:02.128Z,2.85
2023-05-29T10:46:03.981Z,3.10
2023-05-29T10:47:06.632Z,2.83
2023-05-29T10:48:08.183Z,2.40
2023-05-29T10:49:20.132Z,2.92
2023-05-29T10:50:46.756Z,3.33
2023-05-29T10:51:49.422Z,2.92
2023-05-29T10:52:51.222Z,2.85
2023-05-29T10:53:53.107Z,5.22
2023-05-29T10:54:55.965Z,3.42
2023-05-29T10:55:58.128Z,3.78
2023-05-29T10:57:02.247Z,4.10
2023-05-29T10:58:07.873Z,2.78
2023-05-29T10:59:09.802Z,2.65
2023-05-29T11:00:16.380Z,2.88
2023-05-29T11:01:18.788Z,2.88
2023-05-29T11:02:21.596Z,2.75
2023-05-29T11:04:27.617Z,3.03
2023-05-29T11:05:29.319Z,3.33
2023-05-29T11:06:30.886Z,4.93
2023-05-29T11:07:36.402Z,2.90
2023-05-29T11:08:48.399Z,2.45
2023-05-29T11:09:51.322Z,2.95
2023-05-29T11:10:55.936Z,2.80
2023-05-29T11:12:13.858Z,2.95
2023-05-29T11:13:29.617Z,2.83
2023-05-29T11:14:31.287Z,2.97
2023-05-29T11:15:32.895Z,2.25
2023-05-29T11:16:36.968Z,2.53
2023-05-29T11:17:38.529Z,2.63
2023-05-29T11:18:45.532Z,3.10
2023-05-29T11:19:47.220Z,2.95
2023-05-29T11:20:53.981Z,3.13
2023-05-29T11:22:10.390Z,3.15
2023-05-29T11:23:18.393Z,2.75
2023-05-29T11:24:27.219Z,3.10
2023-05-29T11:25:29.180Z,2.55
2023-05-29T11:26:31.225Z,3.05
2023-05-29T11:27:33.171Z,2.63
2023-05-29T11:28:34.905Z,2.72
2023-05-29T11:29:36.679Z,3.00
2023-05-29T11:30:45.379Z,2.85
2023-05-29T11:31:47.045Z,2.90
2023-05-29T11:32:49.166Z,2.90
2023-05-29T11:33:51.782Z,2.78
2023-05-29T11:34:53.462Z,2.70
2023-05-29T11:35:59.138Z,2.92
2023-05-29T11:37:01.636Z,2.90
2023-05-29T11:38:04.403Z,2.70
2023-05-29T11:39:06.512Z,2.20
2023-05-29T11:40:12.160Z,2.50
2023-05-29T11:41:14.990Z,2.47
2023-05-29T11:42:17.460Z,2.53
2023-05-29T11:43:19.434Z,2.88
2023-05-29T11:44:21.847Z,2.72
2023-05-29T11:45:24.499Z,2.70
2023-05-29T11:46:27.574Z,3.10
2023-05-29T11:47:29.221Z,2.60
2023-05-29T11:48:30.872Z,2.78
2023-05-29T11:49:34.204Z,2.45
2023-05-29T11:50:38.344Z,2.67
2023-05-29T11:51:42.875Z,2.90
2023-05-29T11:52:47.584Z,3.03
2023-05-29T11:53:49.432Z,3.30
2023-05-29T11:54:51.453Z,2.60
2023-05-29T11:55:53.241Z,2.42
2023-05-29T11:56:54.914Z,2.45
2023-05-29T11:58:03.484Z,2.83
2023-05-29T11:59:08.857Z,2.65
2023-05-29T12:00:14.541Z,2.72
2023-05-29T12:01:18.160Z,2.90
2023-05-29T12:02:20.457Z,3.10
2023-05-29T12:03:22.217Z,2.67
2023-05-29T12:04:23.910Z,2.72
2023-05-29T12:05:25.745Z,2.70
2023-05-29T12:06:38.673Z,2.60
2023-05-29T12:07:40.449Z,3.08
2023-05-29T12:08:42.352Z,3.25
2023-05-29T12:09:43.957Z,3.08
2023-05-29T12:10:52.927Z,3.00
2023-05-29T12:12:04.419Z,2.80
2023-05-29T12:13:06.065Z,2.58
2023-05-29T12:14:07.635Z,2.53
2023-05-29T12:15:09.759Z,2.65
2023-05-29T12:16:11.639Z,2.60
2023-05-29T12:17:13.288Z,2.53
2023-05-29T12:18:15.045Z,2.47
2023-05-29T12:19:16.634Z,2.50
2023-05-29T12:20:18.672Z,2.90
2023-05-29T12:21:22.765Z,2.45
2023-05-29T12:22:35.101Z,2.75
2023-05-29T12:23:38.398Z,2.40
2023-05-29T12:24:43.304Z,3.10
2023-05-29T12:25:46.020Z,2.75
2023-05-29T12:26:50.409Z,3.05
2023-05-29T12:27:52.009Z,2.72
2023-05-29T12:28:53.727Z,2.55
2023-05-29T12:30:02.465Z,2.83
2023-05-29T12:31:04.415Z,2.08
2023-05-29T12:32:10.969Z,2.75
2023-05-29T12:33:27.909Z,2.72
2023-05-29T12:34:37.267Z,2.33
2023-05-29T12:35:38.908Z,2.78
2023-05-29T12:36:44.200Z,2.60
2023-05-29T12:37:50.615Z,3.00
2023-05-29T12:38:52.654Z,2.60
2023-05-29T12:40:19.712Z,2.75
2023-05-29T12:41:28.066Z,2.90
2023-05-29T12:42:30.000Z,2.38
2023-05-29T12:43:31.694Z,2.50
2023-05-29T12:44:33.496Z,2.65
2023-05-29T12:45:35.278Z,2.60
2023-05-29T12:46:41.873Z,2.47
2023-05-29T12:48:07.918Z,2.70
2023-05-29T12:49:22.202Z,2.85
2023-05-29T12:50:28.137Z,2.63
2023-05-29T12:51:29.757Z,2.58
2023-05-29T12:52:31.334Z,2.60
2023-05-29T12:53:32.945Z,2.90
2023-05-29T12:54:34.718Z,2.58
2023-05-29T12:55:40.490Z,2.40
2023-05-29T12:56:42.284Z,2.65
2023-05-29T12:57:45.782Z,2.30
2023-05-29T12:58:47.442Z,2.60
2023-05-29T12:59:49.044Z,2.33
2023-05-29T13:00:57.134Z,2.67
2023-05-29T13:01:58.719Z,2.40
2023-05-29T13:03:00.470Z,2.38
2023-05-29T13:04:02.216Z,2.58
2023-05-29T13:05:03.989Z,2.28
2023-05-29T13:06:05.922Z,2.40
2023-05-29T13:07:07.560Z,2.58
2023-05-29T13:08:09.314Z,2.55
2023-05-29T13:09:11.938Z,2.58
2023-05-29T13:10:13.519Z,2.70
2023-05-29T13:11:18.875Z,2.35
2023-05-29T13:12:20.492Z,2.55
2023-05-29T13:13:23.270Z,2.90
2023-05-29T13:15:26.831Z,2.53
2023-05-29T13:16:28.425Z,2.45
2023-05-29T13:17:30.120Z,2.75
2023-05-29T13:18:32.080Z,2.58
2023-05-29T13:19:33.670Z,2.67
2023-05-29T13:20:35.828Z,2.20
2023-05-29T13:21:37.539Z,2.80
2023-05-29T13:22:39.811Z,2.63
2023-05-29T13:23:41.352Z,2.70
2023-05-29T13:24:43.115Z,2.70
2023-05-29T13:25:44.737Z,2.83
2023-05-29T13:26:46.321Z,2.85
2023-05-29T13:27:48.421Z,2.60
2023-05-29T13:28:50.089Z,2.53
2023-05-29T13:29:53.504Z,2.20
2023-05-29T13:30:56.892Z,2.70
2023-05-29T13:31:58.518Z,2.45
2023-05-29T13:33:00.110Z,2.50
2023-05-29T13:34:01.691Z,2.63
2023-05-29T13:35:04.165Z,2.60
2023-05-29T13:36:06.515Z,2.60
2023-05-29T13:37:08.076Z,2.30
2023-05-29T13:38:09.636Z,2.65
2023-05-29T13:39:11.620Z,2.30
2023-05-29T13:40:16.186Z,2.50
2023-05-29T13:41:17.776Z,2.45
2023-05-29T13:42:19.694Z,2.60
2023-05-29T13:43:26.765Z,2.67
2023-05-29T13:44:34.028Z,2.70
2023-05-29T13:45:35.614Z,2.47
2023-05-29T13:46:37.273Z,2.85
2023-05-29T13:47:38.953Z,2.63
2023-05-29T13:48:40.543Z,2.75
2023-05-29T13:49:42.237Z,2.75
2023-05-29T13:50:43.837Z,2.78
2023-05-29T13:51:47.608Z,2.40
2023-05-29T13:52:49.169Z,2.70
2023-05-29T13:53:50.763Z,2.33
2023-05-29T13:54:52.637Z,2.63
2023-05-29T13:55:54.341Z,2.47
2023-05-29T13:56:56.013Z,2.65
2023-05-29T13:57:59.036Z,2.70
2023-05-29T13:59:04.912Z,2.97
2023-05-29T14:00:07.595Z,2.80
2023-05-29T14:01:09.197Z,2.45
2023-05-29T14:02:10.861Z,2.80
2023-05-29T14:03:12.514Z,2.72
2023-05-29T14:04:14.163Z,2.95
2023-05-29T14:05:16.086Z,2.47
2023-05-29T14:06:17.676Z,2.72
2023-05-29T14:07:19.256Z,2.83
2023-05-29T14:08:20.895Z,2.40